createdAt,value
2015-09-25T00:00:10.454Z,97.53
2015-09-25T00:00:22.864Z,97.91
2015-09-25T00:00:35.270Z,97.82
2015-09-25T00:00:47.692Z,97.44
2015-09-25T00:01:00.114Z,97.53
2015-09-25T00:01:12.535Z,97.72
2015-09-25T00:01:24.945Z,97.63
2015-09-25T00:01:37.335Z,97.72
2015-09-25T00:01:49.742Z,98.39
2015-09-25T00:02:02.132Z,98.29
2015-09-25T00:02:14.538Z,98.01
2015-09-25T00:02:26.931Z,98.2
2015-09-25T00:02:39.322Z,97.91
2015-09-25T00:02:51.728Z,98.01
2015-09-25T00:03:04.150Z,98.2
2015-09-25T00:03:15.853Z,97.91
2015-09-25T00:03:28.247Z,98.29
2015-09-25T00:03:40.637Z,97.91
2015-09-25T00:03:53.028Z,97.91
2015-09-25T00:04:05.418Z,97.91
2015-09-25T00:04:17.825Z,97.91
2015-09-25T00:04:30.250Z,97.91
2015-09-25T00:04:42.671Z,98.01
2015-09-25T00:04:55.109Z,97.91
2015-09-25T00:05:07.500Z,97.91
2015-09-25T00:05:19.890Z,97.72
2015-09-25T00:05:32.299Z,98.1
2015-09-25T00:05:44.690Z,98.29
2015-09-25T00:05:57.081Z,97.91
2015-09-25T00:06:09.471Z,97.86
2015-09-25T00:06:21.878Z,98.29
2015-09-25T00:06:34.301Z,98.1
2015-09-25T00:06:46.723Z,97.91
2015-09-25T00:06:59.161Z,98.2
2015-09-25T00:07:11.551Z,98.01
2015-09-25T00:07:23.942Z,97.91
2015-09-25T00:07:36.337Z,98.1
2015-09-25T00:07:48.993Z,98.24
2015-09-25T00:08:01.384Z,98.2
2015-09-25T00:08:13.790Z,97.86
2015-09-25T00:08:26.182Z,97.91
2015-09-25T00:08:38.589Z,98.39
2015-09-25T00:08:51.011Z,98.24
2015-09-25T00:09:03.432Z,98.96
2015-09-25T00:09:15.854Z,98.96
2015-09-25T00:09:28.264Z,98.67
2015-09-25T00:09:40.654Z,99.05
2015-09-25T00:09:53.045Z,99.05
2015-09-25T00:10:05.451Z,98.77
2015-09-25T00:10:17.842Z,99.43
2015-09-25T00:10:30.235Z,99.05
2015-09-25T00:10:42.626Z,99.43
2015-09-25T00:10:55.048Z,99.52
2015-09-25T00:11:07.454Z,99.43
2015-09-25T00:11:19.860Z,99.43
2015-09-25T00:11:32.270Z,99.05
2015-09-25T00:11:44.660Z,99.24
2015-09-25T00:11:57.113Z,99.15
2015-09-25T00:12:09.504Z,99.24
2015-09-25T00:12:21.910Z,99.24
2015-09-25T00:12:34.317Z,99.24
2015-09-25T00:12:46.739Z,99.15
2015-09-25T00:12:59.161Z,99.52
2015-09-25T00:13:11.599Z,99.52
2015-09-25T00:13:23.989Z,99.24
2015-09-25T00:13:36.383Z,99.62
2015-09-25T00:13:48.774Z,99.52
2015-09-25T00:14:01.180Z,99.43
2015-09-25T00:14:13.570Z,99.05
2015-09-25T00:14:25.977Z,99.43
2015-09-25T00:14:38.386Z,99.15
2015-09-25T00:14:50.792Z,99.15
2015-09-25T00:15:03.214Z,98.86
2015-09-25T00:15:15.636Z,98.96
2015-09-25T00:15:28.042Z,98.48
2015-09-25T00:15:40.436Z,99.05
2015-09-25T00:15:52.826Z,98.96
2015-09-25T00:16:04.514Z,98.86
2015-09-25T00:16:16.920Z,98.1
2015-09-25T00:16:29.155Z,98.01
2015-09-25T00:16:41.548Z,98.29
2015-09-25T00:16:53.954Z,98.2
2015-09-25T00:17:06.361Z,98.1
2015-09-25T00:17:18.783Z,97.72
2015-09-25T00:17:30.501Z,97.91
2015-09-25T00:17:42.941Z,97.63
2015-09-25T00:17:55.331Z,97.82
2015-09-25T00:18:07.722Z,97.82
2015-09-25T00:18:20.128Z,98.01
2015-09-25T00:18:32.523Z,98.39
2015-09-25T00:18:44.914Z,98.29
2015-09-25T00:18:57.320Z,98.1
2015-09-25T00:19:09.742Z,98.29
2015-09-25T00:19:22.148Z,98.29
2015-09-25T00:19:34.572Z,98.29
2015-09-25T00:19:47.009Z,98.2
2015-09-25T00:19:59.400Z,98.2
2015-09-25T00:20:11.791Z,98.29
2015-09-25T00:20:24.197Z,97.63
2015-09-25T00:20:36.590Z,97.91
2015-09-25T00:20:48.981Z,98.1
2015-09-25T00:21:01.387Z,98.2
2015-09-25T00:21:13.794Z,98.29
2015-09-25T00:21:26.231Z,98.96
2015-09-25T00:21:38.639Z,99.15
2015-09-25T00:21:51.046Z,98.58
2015-09-25T00:22:03.436Z,98.77
2015-09-25T00:22:15.842Z,98.67
2015-09-25T00:22:28.233Z,98.48
2015-09-25T00:22:40.642Z,99.05
2015-09-25T00:22:53.033Z,98.86
2015-09-25T00:23:05.424Z,98.86
2015-09-25T00:23:17.830Z,98.96
2015-09-25T00:23:30.236Z,98.77
2015-09-25T00:23:42.661Z,99.05
2015-09-25T00:23:55.052Z,98.67
2015-09-25T00:24:07.458Z,99.15
2015-09-25T00:24:19.848Z,99.05
2015-09-25T00:24:32.239Z,99.05
2015-09-25T00:24:44.648Z,99.05
2015-09-25T00:24:57.055Z,99.05
2015-09-25T00:25:09.508Z,98.96
2015-09-25T00:25:21.930Z,98.77
2015-09-25T00:25:34.383Z,99.15
2015-09-25T00:25:46.775Z,99.24
2015-09-25T00:25:59.182Z,98.96
2015-09-25T00:26:11.572Z,98.96
2015-09-25T00:26:23.963Z,98.86
2015-09-25T00:26:36.369Z,98.86
2015-09-25T00:26:48.763Z,99.05
2015-09-25T00:27:01.169Z,98.77
2015-09-25T00:27:13.575Z,98.67
2015-09-25T00:27:26.013Z,98.96
2015-09-25T00:27:38.435Z,98.86
2015-09-25T00:27:50.875Z,98.96
2015-09-25T00:28:03.281Z,98.77
2015-09-25T00:28:15.672Z,98.96
2015-09-25T00:28:28.063Z,98.86
2015-09-25T00:28:40.469Z,99.05
2015-09-25T00:28:52.878Z,98.96
2015-09-25T00:29:05.269Z,99.05
2015-09-25T00:29:17.691Z,98.86
2015-09-25T00:29:30.112Z,99.05
2015-09-25T00:29:42.534Z,99.05
2015-09-25T00:29:54.944Z,99.05
2015-09-25T00:30:07.334Z,99.05
2015-09-25T00:30:19.740Z,99.05
2015-09-25T00:30:32.131Z,99.15
2015-09-25T00:30:44.522Z,99.05
2015-09-25T00:30:56.914Z,98.96
2015-09-25T00:31:09.321Z,98.86
2015-09-25T00:31:21.727Z,99.05
2015-09-25T00:31:34.133Z,98.86
2015-09-25T00:31:46.555Z,98.86
2015-09-25T00:31:58.995Z,98.86
2015-09-25T00:32:11.417Z,99.05
2015-09-25T00:32:23.808Z,98.86
2015-09-25T00:32:36.245Z,99.15
2015-09-25T00:32:48.636Z,99.15
2015-09-25T00:33:01.030Z,99.15
2015-09-25T00:33:13.436Z,99.15
2015-09-25T00:33:25.827Z,99.05
2015-09-25T00:33:38.233Z,98.96
2015-09-25T00:33:50.623Z,99.05
2015-09-25T00:34:03.047Z,99.15
2015-09-25T00:34:15.485Z,98.96
2015-09-25T00:34:27.907Z,99.15
2015-09-25T00:34:40.344Z,98.77
2015-09-25T00:34:52.735Z,98.96
2015-09-25T00:35:05.128Z,98.67
2015-09-25T00:35:17.519Z,98.67
2015-09-25T00:35:29.925Z,98.77
2015-09-25T00:35:42.316Z,98.77
2015-09-25T00:35:54.710Z,98.86
2015-09-25T00:36:07.116Z,98.86
2015-09-25T00:36:19.506Z,98.39
2015-09-25T00:36:31.772Z,99.05
2015-09-25T00:36:44.178Z,99.05
2015-09-25T00:36:56.446Z,99.05
2015-09-25T00:37:08.837Z,98.96
2015-09-25T00:37:21.243Z,98.86
2015-09-25T00:37:33.633Z,98.86
2015-09-25T00:37:46.024Z,98.96
2015-09-25T00:37:58.433Z,98.39
2015-09-25T00:38:10.840Z,98.86
2015-09-25T00:38:23.261Z,98.67
2015-09-25T00:38:35.668Z,98.48
2015-09-25T00:38:48.058Z,98.58
2015-09-25T00:39:00.452Z,98.67
2015-09-25T00:39:12.843Z,98.86
2015-09-25T00:39:25.233Z,98.96
2015-09-25T00:39:37.624Z,98.86
2015-09-25T00:39:50.014Z,98.96
2015-09-25T00:40:02.424Z,99.05
2015-09-25T00:40:14.830Z,98.96
2015-09-25T00:40:27.267Z,98.86
2015-09-25T00:40:38.971Z,98.77
2015-09-25T00:40:51.377Z,98.77
2015-09-25T00:41:03.769Z,99.24
2015-09-25T00:41:16.160Z,98.77
2015-09-25T00:41:28.551Z,98.86
2015-09-25T00:41:40.957Z,98.77
2015-09-25T00:41:53.348Z,98.77
2015-09-25T00:42:05.773Z,98.39
2015-09-25T00:42:18.180Z,98.86
2015-09-25T00:42:30.586Z,98.86
2015-09-25T00:42:43.008Z,98.86
2015-09-25T00:42:55.430Z,98.86
2015-09-25T00:43:07.838Z,98.96
2015-09-25T00:43:20.229Z,98.39
2015-09-25T00:43:32.619Z,98.96
2015-09-25T00:43:45.010Z,98.86
2015-09-25T00:43:57.400Z,98.86
2015-09-25T00:44:09.794Z,98.77
2015-09-25T00:44:22.185Z,98.86
2015-09-25T00:44:34.591Z,99.05
2015-09-25T00:44:46.997Z,98.96
2015-09-25T00:44:58.719Z,98.96
2015-09-25T00:45:11.156Z,98.58
2015-09-25T00:45:23.547Z,99.15
2015-09-25T00:45:35.938Z,99.15
2015-09-25T00:45:48.328Z,98.96
2015-09-25T00:46:00.721Z,99.05
2015-09-25T00:46:13.112Z,98.96
2015-09-25T00:46:25.518Z,98.29
2015-09-25T00:46:37.908Z,99.05
2015-09-25T00:46:50.330Z,98.96
2015-09-25T00:47:02.740Z,98.24
2015-09-25T00:47:15.161Z,98.24
2015-09-25T00:47:27.568Z,98.29
2015-09-25T00:47:39.958Z,98.9
2015-09-25T00:47:52.349Z,98.9
2015-09-25T00:48:04.757Z,98.24
2015-09-25T00:48:17.148Z,98.9
2015-09-25T00:48:29.554Z,98.86
2015-09-25T00:48:41.976Z,99
2015-09-25T00:48:54.398Z,99
2015-09-25T00:49:06.823Z,98.9
2015-09-25T00:49:19.229Z,99
2015-09-25T00:49:31.620Z,99
2015-09-25T00:49:43.995Z,99
2015-09-25T00:49:56.401Z,99.09
2015-09-25T00:50:08.794Z,98.71
2015-09-25T00:50:21.044Z,98.81
2015-09-25T00:50:33.435Z,98.81
2015-09-25T00:50:45.857Z,98.81
2015-09-25T00:50:58.263Z,98.43
2015-09-25T00:51:10.703Z,99
2015-09-25T00:51:23.125Z,98.43
2015-09-25T00:51:35.546Z,98.81
2015-09-25T00:51:47.937Z,98.9
2015-09-25T00:52:00.171Z,98.9
2015-09-25T00:52:12.565Z,98.71
2015-09-25T00:52:24.956Z,98.9
2015-09-25T00:52:37.346Z,98.71
2015-09-25T00:52:49.737Z,99
2015-09-25T00:53:02.128Z,98.81
2015-09-25T00:53:14.537Z,99.09
2015-09-25T00:53:26.959Z,98.71
2015-09-25T00:53:39.381Z,99.09
2015-09-25T00:53:51.802Z,99
2015-09-25T00:54:04.224Z,98.9
2015-09-25T00:54:16.618Z,99.09
2015-09-25T00:54:29.024Z,98.81
2015-09-25T00:54:41.430Z,98.86
2015-09-25T00:54:53.821Z,99
2015-09-25T00:55:06.055Z,98.81
2015-09-25T00:55:18.465Z,98.9
2015-09-25T00:55:30.855Z,99.24
2015-09-25T00:55:43.262Z,99.24
2015-09-25T00:55:55.699Z,99.33
2015-09-25T00:56:08.121Z,99.43
2015-09-25T00:56:20.530Z,99.24
2015-09-25T00:56:32.921Z,99.05
2015-09-25T00:56:45.311Z,99.33
2015-09-25T00:56:57.702Z,99.43
2015-09-25T00:57:10.108Z,99.24
2015-09-25T00:57:22.517Z,99.43
2015-09-25T00:57:34.938Z,99.15
2015-09-25T00:57:47.345Z,99.05
2015-09-25T00:57:59.767Z,99.24
2015-09-25T00:58:12.191Z,99.24
2015-09-25T00:58:24.629Z,98.86
2015-09-25T00:58:37.066Z,98.77
2015-09-25T00:58:49.473Z,99.05
2015-09-25T00:59:01.863Z,99.05
2015-09-25T00:59:14.350Z,98.67
2015-09-25T00:59:26.740Z,98.77
2015-09-25T00:59:39.147Z,98.86
2015-09-25T00:59:51.522Z,98.96
2015-09-25T01:00:03.943Z,98.86
2015-09-25T01:00:16.354Z,98.86
2015-09-25T01:00:28.776Z,99.05
2015-09-25T01:00:41.197Z,98.1
2015-09-25T01:00:53.619Z,98.29
2015-09-25T01:01:06.010Z,98.2
2015-09-25T01:01:18.403Z,97.72
2015-09-25T01:01:30.809Z,97.63
2015-09-25T01:01:43.199Z,97.91
2015-09-25T01:01:55.590Z,98.01
2015-09-25T01:02:07.996Z,98.01
2015-09-25T01:02:20.406Z,98.1
2015-09-25T01:02:32.812Z,98.29
2015-09-25T01:02:45.234Z,98.1
2015-09-25T01:02:57.656Z,98.29
2015-09-25T01:03:10.062Z,98.2
2015-09-25T01:03:22.440Z,98.29
2015-09-25T01:03:34.846Z,98.29
2015-09-25T01:03:47.237Z,98.2
2015-09-25T01:03:59.627Z,98.29
2015-09-25T01:04:12.018Z,98.2
2015-09-25T01:04:24.427Z,98.1
2015-09-25T01:04:36.818Z,98.1
2015-09-25T01:04:49.240Z,98.01
2015-09-25T01:05:01.662Z,98.2
2015-09-25T01:05:14.083Z,98.1
2015-09-25T01:05:26.507Z,98.48
2015-09-25T01:05:38.898Z,98.1
2015-09-25T01:05:51.289Z,98.67
2015-09-25T01:06:03.695Z,97.91
2015-09-25T01:06:16.101Z,98.1
2015-09-25T01:06:27.620Z,97.91
2015-09-25T01:06:40.026Z,97.72
2015-09-25T01:06:52.432Z,98.01
2015-09-25T01:07:04.823Z,97.72
2015-09-25T01:07:17.245Z,98.01
2015-09-25T01:07:29.654Z,98.1
2015-09-25T01:07:41.326Z,98.2
2015-09-25T01:07:53.716Z,98.2
2015-09-25T01:08:06.123Z,98.1
2015-09-25T01:08:18.513Z,97.82
2015-09-25T01:08:30.906Z,98.2
2015-09-25T01:08:43.312Z,98.1
2015-09-25T01:08:55.703Z,98.1
2015-09-25T01:09:08.109Z,98.2
2015-09-25T01:09:20.531Z,98.29
2015-09-25T01:09:32.768Z,98.29
2015-09-25T01:09:45.159Z,98.29
2015-09-25T01:09:57.550Z,98.29
2015-09-25T01:10:09.956Z,98.29
2015-09-25T01:10:22.362Z,98.29
2015-09-25T01:10:34.740Z,98.29
2015-09-25T01:10:47.146Z,98.96
2015-09-25T01:10:59.537Z,98.96
2015-09-25T01:11:11.959Z,98.1
2015-09-25T01:11:24.381Z,99.15
2015-09-25T01:11:36.789Z,99.05
2015-09-25T01:11:49.180Z,98.01
2015-09-25T01:12:01.570Z,98.29
2015-09-25T01:12:13.961Z,98.39
2015-09-25T01:12:26.351Z,98.1
2015-09-25T01:12:38.745Z,97.82
2015-09-25T01:12:51.151Z,98.01
2015-09-25T01:13:03.558Z,98.1
2015-09-25T01:13:15.979Z,98.58
2015-09-25T01:13:28.389Z,97.91
2015-09-25T01:13:40.779Z,98.2
2015-09-25T01:13:53.170Z,98.01
2015-09-25T01:14:05.561Z,98.2
2015-09-25T01:14:17.967Z,98.29
2015-09-25T01:14:30.376Z,98.2
2015-09-25T01:14:42.767Z,98.29
2015-09-25T01:14:55.220Z,98.2
2015-09-25T01:15:07.657Z,97.91
2015-09-25T01:15:20.048Z,98.1
2015-09-25T01:15:32.442Z,97.91
2015-09-25T01:15:44.832Z,97.91
2015-09-25T01:15:57.238Z,98.29
2015-09-25T01:16:09.629Z,98.39
2015-09-25T01:16:22.020Z,98.29
2015-09-25T01:16:34.428Z,98.1
2015-09-25T01:16:46.834Z,98.01
2015-09-25T01:16:59.256Z,98.29
2015-09-25T01:17:11.678Z,98.29
2015-09-25T01:17:24.069Z,98.39
2015-09-25T01:17:36.477Z,98.29
2015-09-25T01:17:48.867Z,98.01
2015-09-25T01:18:01.274Z,98.1
2015-09-25T01:18:13.664Z,98.1
2015-09-25T01:18:26.055Z,97.82
2015-09-25T01:18:38.464Z,98.1
2015-09-25T01:18:50.855Z,97.16
2015-09-25T01:19:03.277Z,97.25
2015-09-25T01:19:15.699Z,97.06
2015-09-25T01:19:28.089Z,97.25
2015-09-25T01:19:40.483Z,96.78
2015-09-25T01:19:52.889Z,96.5
2015-09-25T01:20:05.264Z,96.88
2015-09-25T01:20:17.670Z,96.69
2015-09-25T01:20:30.061Z,96.21
2015-09-25T01:20:42.470Z,96.5
2015-09-25T01:20:54.861Z,96.4
2015-09-25T01:21:07.283Z,95.74
2015-09-25T01:21:19.705Z,96.12
2015-09-25T01:21:32.142Z,95.93
2015-09-25T01:21:44.583Z,95.83
2015-09-25T01:21:56.973Z,95.74
2015-09-25T01:22:09.364Z,96.02
2015-09-25T01:22:21.754Z,95.83
2015-09-25T01:22:34.161Z,95.07
2015-09-25T01:22:46.553Z,95.17
2015-09-25T01:22:58.991Z,95.17
2015-09-25T01:23:11.413Z,94.89
2015-09-25T01:23:23.835Z,94.79
2015-09-25T01:23:36.225Z,94.79
2015-09-25T01:23:48.619Z,94.51
2015-09-25T01:24:01.009Z,94.7
2015-09-25T01:24:13.416Z,94.51
2015-09-25T01:24:25.806Z,94.98
2015-09-25T01:24:38.197Z,94.6
2015-09-25T01:24:50.605Z,94.7
2015-09-25T01:25:02.996Z,94.7
2015-09-25T01:25:15.418Z,95.17
2015-09-25T01:25:27.840Z,94.51
2015-09-25T01:25:40.265Z,94.32
2015-09-25T01:25:51.969Z,94.32
2015-09-25T01:26:04.375Z,94.13
2015-09-25T01:26:16.765Z,94.32
2015-09-25T01:26:29.172Z,94.51
2015-09-25T01:26:41.564Z,94.13
2015-09-25T01:26:53.955Z,94.04
2015-09-25T01:27:06.346Z,93.94
2015-09-25T01:27:18.752Z,93.94
2015-09-25T01:27:31.158Z,93.09
2015-09-25T01:27:43.600Z,93.13
2015-09-25T01:27:56.037Z,92.99
2015-09-25T01:28:08.459Z,92.99
2015-09-25T01:28:20.131Z,92.9
2015-09-25T01:28:32.521Z,93.04
2015-09-25T01:28:44.914Z,93.04
2015-09-25T01:28:57.336Z,92.85
2015-09-25T01:29:09.742Z,92.94
2015-09-25T01:29:22.133Z,92.61
2015-09-25T01:29:34.523Z,92.66
2015-09-25T01:29:46.933Z,92.85
2015-09-25T01:29:59.370Z,92.94
2015-09-25T01:30:11.776Z,92.61
2015-09-25T01:30:24.167Z,92.99
2015-09-25T01:30:36.558Z,93.09
2015-09-25T01:30:48.950Z,93.13
2015-09-25T01:31:00.622Z,93.04
2015-09-25T01:31:13.028Z,92.76
2015-09-25T01:31:25.435Z,92.38
2015-09-25T01:31:37.857Z,92.47
2015-09-25T01:31:50.274Z,92.66
2015-09-25T01:32:02.681Z,92.47
2015-09-25T01:32:15.071Z,92.19
2015-09-25T01:32:27.478Z,92.1
2015-09-25T01:32:39.868Z,91.81
2015-09-25T01:32:52.251Z,91.91
2015-09-25T01:33:04.641Z,91.72
2015-09-25T01:33:17.048Z,91.53
2015-09-25T01:33:29.454Z,91.72
2015-09-25T01:33:41.860Z,91.91
2015-09-25T01:33:54.290Z,91.72
2015-09-25T01:34:06.727Z,91.53
2015-09-25T01:34:19.118Z,91.15
2015-09-25T01:34:30.805Z,91.43
2015-09-25T01:34:43.196Z,91.34
2015-09-25T01:34:55.579Z,91.24
2015-09-25T01:35:07.985Z,91.05
2015-09-25T01:35:20.375Z,91.24
2015-09-25T01:35:32.782Z,91.34
2015-09-25T01:35:45.188Z,91.24
2015-09-25T01:35:57.618Z,90.96
2015-09-25T01:36:10.040Z,90.86
2015-09-25T01:36:22.447Z,91.05
2015-09-25T01:36:34.837Z,91.34
2015-09-25T01:36:47.228Z,91.24
2015-09-25T01:36:59.615Z,91.24
2015-09-25T01:37:12.006Z,91.24
2015-09-25T01:37:24.397Z,91.34
2015-09-25T01:37:36.787Z,91.43
2015-09-25T01:37:49.194Z,91.24
2015-09-25T01:38:01.443Z,91.72
2015-09-25T01:38:13.864Z,91.53
2015-09-25T01:38:26.286Z,91.34
2015-09-25T01:38:38.724Z,91.34
2015-09-25T01:38:51.114Z,91.34
2015-09-25T01:39:03.521Z,91.62
2015-09-25T01:39:15.911Z,91.81
2015-09-25T01:39:28.302Z,91.72
2015-09-25T01:39:40.693Z,92
2015-09-25T01:39:53.098Z,91.91
2015-09-25T01:40:05.363Z,92.1
2015-09-25T01:40:17.785Z,92
2015-09-25T01:40:30.207Z,92.76
2015-09-25T01:40:42.613Z,92.76
2015-09-25T01:40:55.003Z,92.38
2015-09-25T01:41:07.409Z,92.57
2015-09-25T01:41:19.800Z,93.04
2015-09-25T01:41:32.191Z,92.94
2015-09-25T01:41:44.597Z,92.94
2015-09-25T01:41:56.988Z,92.76
2015-09-25T01:42:09.410Z,92.85
2015-09-25T01:42:21.817Z,92.94
2015-09-25T01:42:34.238Z,93.32
2015-09-25T01:42:46.645Z,93.32
2015-09-25T01:42:59.036Z,93.32
2015-09-25T01:43:11.427Z,93.37
2015-09-25T01:43:23.818Z,93.18
2015-09-25T01:43:36.224Z,93.8
2015-09-25T01:43:48.614Z,93.56
2015-09-25T01:44:01.022Z,94.04
2015-09-25T01:44:13.428Z,93.94
2015-09-25T01:44:25.850Z,93.94
2015-09-25T01:44:38.272Z,94.13
2015-09-25T01:44:50.662Z,93.94
2015-09-25T01:45:03.054Z,94.13
2015-09-25T01:45:15.445Z,94.23
2015-09-25T01:45:27.851Z,94.32
2015-09-25T01:45:40.241Z,94.04
2015-09-25T01:45:52.616Z,94.23
2015-09-25T01:46:05.025Z,94.32
2015-09-25T01:46:17.431Z,94.51
2015-09-25T01:46:29.853Z,94.51
2015-09-25T01:46:42.275Z,94.51
2015-09-25T01:46:54.697Z,94.42
2015-09-25T01:47:07.105Z,94.23
2015-09-25T01:47:19.495Z,94.23
2015-09-25T01:47:31.902Z,94.04
2015-09-25T01:47:44.308Z,94.42
2015-09-25T01:47:56.683Z,94.32
2015-09-25T01:48:09.076Z,94.51
2015-09-25T01:48:21.482Z,94.6
2015-09-25T01:48:33.888Z,94.6
2015-09-25T01:48:46.310Z,94.42
2015-09-25T01:48:58.732Z,94.6
2015-09-25T01:49:11.187Z,95.07
2015-09-25T01:49:23.624Z,94.98
2015-09-25T01:49:36.015Z,94.51
2015-09-25T01:49:48.406Z,94.7
2015-09-25T01:50:00.796Z,94.51
2015-09-25T01:50:13.206Z,94.7
2015-09-25T01:50:25.596Z,95.36
2015-09-25T01:50:37.987Z,95.26
2015-09-25T01:50:50.393Z,95.17
2015-09-25T01:51:02.799Z,95.36
2015-09-25T01:51:15.239Z,95.83
2015-09-25T01:51:27.661Z,95.64
2015-09-25T01:51:40.083Z,95.64
2015-09-25T01:51:52.473Z,95.83
2015-09-25T01:52:04.867Z,96.21
2015-09-25T01:52:17.257Z,96.02
2015-09-25T01:52:29.664Z,95.83
2015-09-25T01:52:42.054Z,96.02
2015-09-25T01:52:54.461Z,96.12
2015-09-25T01:53:06.869Z,96.21
2015-09-25T01:53:19.291Z,96.02
2015-09-25T01:53:31.713Z,96.02
2015-09-25T01:53:44.134Z,96.12
2015-09-25T01:53:56.572Z,96.4
2015-09-25T01:54:08.967Z,96.78
2015-09-25T01:54:21.388Z,96.5
2015-09-25T01:54:33.779Z,96.88
2015-09-25T01:54:46.170Z,96.78
2015-09-25T01:54:58.560Z,96.5
2015-09-25T01:55:10.953Z,96.69
2015-09-25T01:55:23.359Z,96.88
2015-09-25T01:55:35.765Z,97.44
2015-09-25T01:55:48.187Z,97.06
2015-09-25T01:56:00.609Z,97.16
2015-09-25T01:56:13.049Z,97.16
2015-09-25T01:56:25.439Z,97.44
2015-09-25T01:56:37.111Z,97.44
2015-09-25T01:56:49.517Z,97.63
2015-09-25T01:57:01.924Z,97.25
2015-09-25T01:57:14.334Z,97.44
2015-09-25T01:57:26.740Z,97.72
2015-09-25T01:57:39.146Z,97.53
2015-09-25T01:57:51.568Z,97.16
2015-09-25T01:58:03.959Z,97.25
2015-09-25T01:58:16.352Z,97.34
2015-09-25T01:58:28.758Z,97.53
2015-09-25T01:58:41.148Z,98.1
2015-09-25T01:58:53.539Z,97.53
2015-09-25T01:59:05.945Z,98.01
2015-09-25T01:59:18.339Z,97.82
2015-09-25T01:59:30.745Z,97.91
2015-09-25T01:59:43.151Z,98.29
2015-09-25T01:59:55.558Z,98.01
2015-09-25T02:00:07.948Z,98.67
2015-09-25T02:00:20.358Z,97.91
2015-09-25T02:00:32.748Z,97.91
2015-09-25T02:00:45.139Z,98.01
2015-09-25T02:00:57.529Z,98.2
2015-09-25T02:01:09.936Z,98.29
2015-09-25T02:01:22.344Z,98.77
2015-09-25T02:01:34.750Z,98.96
2015-09-25T02:01:47.156Z,99.05
2015-09-25T02:01:59.578Z,98.86
2015-09-25T02:02:11.985Z,98.86
2015-09-25T02:02:24.379Z,98.96
2015-09-25T02:02:36.067Z,99.05
2015-09-25T02:02:48.457Z,99.15
2015-09-25T02:03:00.864Z,98.77
2015-09-25T02:03:13.254Z,99.52
2015-09-25T02:03:25.647Z,99.43
2015-09-25T02:03:38.053Z,99.24
2015-09-25T02:03:50.459Z,99.71
2015-09-25T02:04:02.178Z,99.52
2015-09-25T02:04:13.897Z,99.52
2015-09-25T02:04:26.322Z,99.8
2015-09-25T02:04:38.712Z,99.8
2015-09-25T02:04:51.103Z,99.62
2015-09-25T02:05:03.494Z,99.99
2015-09-25T02:05:15.884Z,99.99
2015-09-25T02:05:28.293Z,99.99
2015-09-25T02:05:40.700Z,99.99
2015-09-25T02:05:53.106Z,99.99
2015-09-25T02:06:05.528Z,99.8
2015-09-25T02:06:17.950Z,99.99
2015-09-25T02:06:30.374Z,99.99
2015-09-25T02:06:42.639Z,99.99
2015-09-25T02:06:55.061Z,99.99
2015-09-25T02:07:06.749Z,99.99
2015-09-25T02:07:19.155Z,99.99
2015-09-25T02:07:31.548Z,99.99
2015-09-25T02:07:43.939Z,99.99
2015-09-25T02:07:56.330Z,99.99
2015-09-25T02:08:08.736Z,99.99
2015-09-25T02:08:21.144Z,99.99
2015-09-25T02:08:33.550Z,99.99
2015-09-25T02:08:45.972Z,99.99
2015-09-25T02:08:58.394Z,99.99
2015-09-25T02:09:10.800Z,99.99
2015-09-25T02:09:23.194Z,99.99
2015-09-25T02:09:35.600Z,99.99
2015-09-25T02:09:47.991Z,99.99
2015-09-25T02:10:00.397Z,99.99
2015-09-25T02:10:12.788Z,99.99
2015-09-25T02:10:25.197Z,99.99
2015-09-25T02:10:37.603Z,99.99
2015-09-25T02:10:50.025Z,99.99
2015-09-25T02:11:02.463Z,99.99
2015-09-25T02:11:14.869Z,99.99
2015-09-25T02:11:27.263Z,99.99
2015-09-25T02:11:39.669Z,99.99
2015-09-25T02:11:52.059Z,99.99
2015-09-25T02:12:04.450Z,99.99
2015-09-25T02:12:16.841Z,99.99
2015-09-25T02:12:29.234Z,99.99
2015-09-25T02:12:41.641Z,99.99
2015-09-25T02:12:54.047Z,99.99
2015-09-25T02:13:06.469Z,99.99
2015-09-25T02:13:18.906Z,99.99
2015-09-25T02:13:31.330Z,99.99
2015-09-25T02:13:43.721Z,99.99
2015-09-25T02:13:56.111Z,99.99
2015-09-25T02:14:08.502Z,99.99
2015-09-25T02:14:20.893Z,99.99
2015-09-25T02:14:33.286Z,99.99
2015-09-25T02:14:45.692Z,99.99
2015-09-25T02:14:58.099Z,99.99
2015-09-25T02:15:10.521Z,99.99
2015-09-25T02:15:22.958Z,99.99
2015-09-25T02:15:34.664Z,99.99
2015-09-25T02:15:47.055Z,99.99
2015-09-25T02:15:59.445Z,99.99
2015-09-25T02:16:11.852Z,99.99
2015-09-25T02:16:24.227Z,99.99
2015-09-25T02:16:36.636Z,99.99
2015-09-25T02:16:49.027Z,99.99
2015-09-25T02:17:01.433Z,99.99
2015-09-25T02:17:13.839Z,99.99
2015-09-25T02:17:26.261Z,99.99
2015-09-25T02:17:38.700Z,99.99
2015-09-25T02:17:51.091Z,99.99
2015-09-25T02:18:03.482Z,99.99
2015-09-25T02:18:15.872Z,99.99
2015-09-25T02:18:28.263Z,99.99
2015-09-25T02:18:40.657Z,99.99
2015-09-25T02:18:53.047Z,99.99
2015-09-25T02:19:05.453Z,99.99
2015-09-25T02:19:17.860Z,99.99
2015-09-25T02:19:30.282Z,99.99
2015-09-25T02:19:42.706Z,99.99
2015-09-25T02:19:55.128Z,99.99
2015-09-25T02:20:07.535Z,99.99
2015-09-25T02:20:19.925Z,99.99
2015-09-25T02:20:32.316Z,99.99
2015-09-25T02:20:44.709Z,99.99
2015-09-25T02:20:57.116Z,99.99
2015-09-25T02:21:09.506Z,99.99
2015-09-25T02:21:21.913Z,99.99
2015-09-25T02:21:34.321Z,99.99
2015-09-25T02:21:46.743Z,99.99
2015-09-25T02:21:59.165Z,99.99
2015-09-25T02:22:11.602Z,99.99
2015-09-25T02:22:24.024Z,99.99
2015-09-25T02:22:36.418Z,99.99
2015-09-25T02:22:48.824Z,99.99
2015-09-25T02:23:01.214Z,99.99
2015-09-25T02:23:13.605Z,99.99
2015-09-25T02:23:26.011Z,99.99
2015-09-25T02:23:38.405Z,99.99
2015-09-25T02:23:50.827Z,99.99
2015-09-25T02:24:03.264Z,99.99
2015-09-25T02:24:15.671Z,99.99
2015-09-25T02:24:28.108Z,99.99
2015-09-25T02:24:40.501Z,99.99
2015-09-25T02:24:52.891Z,99.99
2015-09-25T02:25:05.282Z,99.99
2015-09-25T02:25:17.673Z,99.99
2015-09-25T02:25:30.079Z,99.99
2015-09-25T02:25:42.472Z,99.99
2015-09-25T02:25:54.160Z,99.99
2015-09-25T02:26:06.582Z,99.99
2015-09-25T02:26:19.004Z,99.99
2015-09-25T02:26:31.426Z,99.99
2015-09-25T02:26:43.850Z,99.99
2015-09-25T02:26:56.241Z,99.99
2015-09-25T02:27:08.647Z,99.99
2015-09-25T02:27:21.038Z,99.99
2015-09-25T02:27:33.429Z,99.99
2015-09-25T02:27:45.837Z,99.99
2015-09-25T02:27:58.227Z,99.99
2015-09-25T02:28:10.477Z,99.99
2015-09-25T02:28:22.884Z,99.99
2015-09-25T02:28:35.321Z,99.99
2015-09-25T02:28:47.591Z,99.99
2015-09-25T02:29:00.013Z,99.99
2015-09-25T02:29:12.435Z,99.99
2015-09-25T02:29:24.825Z,99.99
2015-09-25T02:29:37.231Z,99.99
2015-09-25T02:29:49.624Z,99.99
2015-09-25T02:30:02.030Z,99.99
2015-09-25T02:30:14.421Z,99.99
2015-09-25T02:30:26.812Z,99.99
2015-09-25T02:30:39.218Z,99.99
2015-09-25T02:30:51.627Z,99.99
2015-09-25T02:31:04.065Z,99.99
2015-09-25T02:31:16.455Z,99.99
2015-09-25T02:31:28.846Z,99.99
2015-09-25T02:31:41.236Z,99.99
2015-09-25T02:31:53.630Z,99.99
2015-09-25T02:32:06.052Z,99.99
2015-09-25T02:32:18.474Z,99.99
2015-09-25T02:32:30.880Z,99.99
2015-09-25T02:32:43.304Z,99.99
2015-09-25T02:32:55.695Z,99.99
2015-09-25T02:33:08.085Z,99.99
2015-09-25T02:33:20.476Z,99.99
2015-09-25T02:33:32.179Z,99.99
2015-09-25T02:33:44.573Z,99.99
2015-09-25T02:33:57.010Z,99.99
2015-09-25T02:34:09.416Z,99.99
2015-09-25T02:34:21.838Z,99.99
2015-09-25T02:34:34.260Z,99.99
2015-09-25T02:34:46.668Z,99.99
2015-09-25T02:34:59.059Z,99.99
2015-09-25T02:35:11.450Z,99.99
2015-09-25T02:35:23.856Z,99.99
2015-09-25T02:35:36.246Z,99.99
2015-09-25T02:35:48.640Z,99.99
2015-09-25T02:36:01.031Z,99.99
2015-09-25T02:36:13.437Z,99.99
2015-09-25T02:36:25.843Z,99.99
2015-09-25T02:36:38.281Z,99.99
2015-09-25T02:36:50.674Z,99.99
2015-09-25T02:37:03.065Z,99.99
2015-09-25T02:37:15.456Z,99.99
2015-09-25T02:37:27.846Z,99.99
2015-09-25T02:37:39.534Z,99.99
2015-09-25T02:37:51.927Z,99.99
2015-09-25T02:38:04.334Z,99.99
2015-09-25T02:38:16.740Z,99.99
2015-09-25T02:38:29.162Z,99.99
2015-09-25T02:38:41.584Z,99.99
2015-09-25T02:38:53.993Z,99.99
2015-09-25T02:39:06.399Z,99.99
2015-09-25T02:39:18.790Z,99.99
2015-09-25T02:39:31.196Z,99.99
2015-09-25T02:39:43.587Z,99.99
2015-09-25T02:39:55.979Z,99.99
2015-09-25T02:40:08.385Z,99.99
2015-09-25T02:40:20.792Z,99.99